sensor_id;sensor_type;location;lat;lon;timestamp;temperature;humidity
69492;DHT22;56692;52.016;4.356;2023-04-08T00:01:25;16.00;53.70
69492;DHT22;56692;52.016;4.356;2023-04-08T00:03:50;16.00;53.70
69492;DHT22;56692;52.016;4.356;2023-04-08T00:06:16;16.00;53.70
69492;DHT22;56692;52.016;4.356;2023-04-08T00:08:42;16.00;53.70
69492;DHT22;56692;52.016;4.356;2023-04-08T00:11:07;15.90;53.70
69492;DHT22;56692;52.016;4.356;2023-04-08T00:13:33;16.00;53.70
69492;DHT22;56692;52.016;4.356;2023-04-08T00:15:59;15.90;53.80
69492;DHT22;56692;52.016;4.356;2023-04-08T00:18:25;15.90;53.70
69492;DHT22;56692;52.016;4.356;2023-04-08T00:20:51;15.90;53.80
69492;DHT22;56692;52.016;4.356;2023-04-08T00:23:17;15.90;53.80
69492;DHT22;56692;52.016;4.356;2023-04-08T00:25:46;15.90;53.80
69492;DHT22;56692;52.016;4.356;2023-04-08T00:28:11;15.90;53.80
69492;DHT22;56692;52.016;4.356;2023-04-08T00:30:37;15.90;53.90
69492;DHT22;56692;52.016;4.356;2023-04-08T00:33:03;15.90;53.90
69492;DHT22;56692;52.016;4.356;2023-04-08T00:35:28;15.90;53.90
69492;DHT22;56692;52.016;4.356;2023-04-08T00:37:54;15.90;53.90
69492;DHT22;56692;52.016;4.356;2023-04-08T00:40:20;15.90;53.90
69492;DHT22;56692;52.016;4.356;2023-04-08T00:42:45;15.90;53.90
69492;DHT22;56692;52.016;4.356;2023-04-08T00:45:13;15.90;54.00
69492;DHT22;56692;52.016;4.356;2023-04-08T00:47:39;15.80;54.00
69492;DHT22;56692;52.016;4.356;2023-04-08T00:50:07;15.80;54.00
69492;DHT22;56692;52.016;4.356;2023-04-08T00:52:34;15.80;54.10
69492;DHT22;56692;52.016;4.356;2023-04-08T00:55:00;15.80;54.10
69492;DHT22;56692;52.016;4.356;2023-04-08T00:57:26;15.80;54.10
69492;DHT22;56692;52.016;4.356;2023-04-08T00:59:52;15.80;54.10
69492;DHT22;56692;52.016;4.356;2023-04-08T01:02:27;15.80;54.20
69492;DHT22;56692;52.016;4.356;2023-04-08T01:05:06;15.80;54.20
69492;DHT22;56692;52.016;4.356;2023-04-08T01:07:39;15.80;54.20
69492;DHT22;56692;52.016;4.356;2023-04-08T01:10:19;15.80;54.30
69492;DHT22;56692;52.016;4.356;2023-04-08T01:12:58;15.80;54.30
69492;DHT22;56692;52.016;4.356;2023-04-08T01:15:27;15.80;54.20
69492;DHT22;56692;52.016;4.356;2023-04-08T01:17:54;15.80;54.30
69492;DHT22;56692;52.016;4.356;2023-04-08T01:20:22;15.70;54.40
69492;DHT22;56692;52.016;4.356;2023-04-08T01:25:37;15.70;54.40
69492;DHT22;56692;52.016;4.356;2023-04-08T01:28:12;15.70;54.40
69492;DHT22;56692;52.016;4.356;2023-04-08T01:30:40;15.70;54.40
69492;DHT22;56692;52.016;4.356;2023-04-08T01:33:09;15.70;54.40
69492;DHT22;56692;52.016;4.356;2023-04-08T01:35:36;15.70;54.40
69492;DHT22;56692;52.016;4.356;2023-04-08T01:38:02;15.70;54.40
69492;DHT22;56692;52.016;4.356;2023-04-08T01:40:31;15.70;54.50
69492;DHT22;56692;52.016;4.356;2023-04-08T01:42:58;15.70;54.50
69492;DHT22;56692;52.016;4.356;2023-04-08T01:45:25;15.70;54.60
69492;DHT22;56692;52.016;4.356;2023-04-08T01:47:52;15.70;54.60
69492;DHT22;56692;52.016;4.356;2023-04-08T01:50:18;15.70;54.60
69492;DHT22;56692;52.016;4.356;2023-04-08T01:52:47;15.70;54.60
69492;DHT22;56692;52.016;4.356;2023-04-08T01:55:14;15.70;54.60
69492;DHT22;56692;52.016;4.356;2023-04-08T01:57:43;15.70;54.70
69492;DHT22;56692;52.016;4.356;2023-04-08T02:00:16;15.70;54.70
69492;DHT22;56692;52.016;4.356;2023-04-08T02:02:43;15.60;54.70
69492;DHT22;56692;52.016;4.356;2023-04-08T02:05:09;15.60;54.70
69492;DHT22;56692;52.016;4.356;2023-04-08T02:07:35;15.60;54.70
69492;DHT22;56692;52.016;4.356;2023-04-08T02:10:01;15.60;54.70
69492;DHT22;56692;52.016;4.356;2023-04-08T02:12:27;15.60;54.70
69492;DHT22;56692;52.016;4.356;2023-04-08T02:14:53;15.60;54.80
69492;DHT22;56692;52.016;4.356;2023-04-08T02:17:35;15.60;54.80
69492;DHT22;56692;52.016;4.356;2023-04-08T02:20:12;15.60;54.80
69492;DHT22;56692;52.016;4.356;2023-04-08T02:23:05;15.60;54.90
69492;DHT22;56692;52.016;4.356;2023-04-08T02:25:34;15.60;54.90
69492;DHT22;56692;52.016;4.356;2023-04-08T02:28:03;15.60;54.90
69492;DHT22;56692;52.016;4.356;2023-04-08T02:30:31;15.60;54.90
69492;DHT22;56692;52.016;4.356;2023-04-08T02:33:00;15.60;54.90
69492;DHT22;56692;52.016;4.356;2023-04-08T02:35:28;15.50;55.00
69492;DHT22;56692;52.016;4.356;2023-04-08T02:37:53;15.50;54.90
69492;DHT22;56692;52.016;4.356;2023-04-08T02:40:31;15.50;55.00
69492;DHT22;56692;52.016;4.356;2023-04-08T02:42:58;15.50;55.00
69492;DHT22;56692;52.016;4.356;2023-04-08T02:45:27;15.50;54.90
69492;DHT22;56692;52.016;4.356;2023-04-08T02:47:52;15.50;54.90
69492;DHT22;56692;52.016;4.356;2023-04-08T02:50:18;15.50;54.90
69492;DHT22;56692;52.016;4.356;2023-04-08T02:52:44;15.50;55.00
69492;DHT22;56692;52.016;4.356;2023-04-08T02:55:10;15.50;55.00
69492;DHT22;56692;52.016;4.356;2023-04-08T02:57:37;15.50;55.00
69492;DHT22;56692;52.016;4.356;2023-04-08T03:00:04;15.50;55.00
69492;DHT22;56692;52.016;4.356;2023-04-08T03:02:30;15.50;55.00
69492;DHT22;56692;52.016;4.356;2023-04-08T03:04:55;15.50;55.10
69492;DHT22;56692;52.016;4.356;2023-04-08T03:07:21;15.50;55.10
69492;DHT22;56692;52.016;4.356;2023-04-08T03:09:47;15.50;55.10
69492;DHT22;56692;52.016;4.356;2023-04-08T03:12:13;15.50;55.00
69492;DHT22;56692;52.016;4.356;2023-04-08T03:14:38;15.50;55.10
69492;DHT22;56692;52.016;4.356;2023-04-08T03:17:04;15.50;55.10
69492;DHT22;56692;52.016;4.356;2023-04-08T03:19:30;15.40;55.10
69492;DHT22;56692;52.016;4.356;2023-04-08T03:21:56;15.50;55.20
69492;DHT22;56692;52.016;4.356;2023-04-08T03:24:21;15.40;55.10
69492;DHT22;56692;52.016;4.356;2023-04-08T03:26:47;15.40;55.20
69492;DHT22;56692;52.016;4.356;2023-04-08T03:29:13;15.40;55.10
69492;DHT22;56692;52.016;4.356;2023-04-08T03:31:39;15.40;55.20
69492;DHT22;56692;52.016;4.356;2023-04-08T03:34:05;15.40;55.20
69492;DHT22;56692;52.016;4.356;2023-04-08T03:36:30;15.40;55.20
69492;DHT22;56692;52.016;4.356;2023-04-08T03:38:56;15.40;55.20
69492;DHT22;56692;52.016;4.356;2023-04-08T03:41:22;15.40;55.10
69492;DHT22;56692;52.016;4.356;2023-04-08T03:43:47;15.40;55.10
69492;DHT22;56692;52.016;4.356;2023-04-08T03:46:13;15.40;55.10
69492;DHT22;56692;52.016;4.356;2023-04-08T03:48:39;15.40;55.10
69492;DHT22;56692;52.016;4.356;2023-04-08T03:51:04;15.40;55.20
69492;DHT22;56692;52.016;4.356;2023-04-08T03:53:30;15.40;55.30
69492;DHT22;56692;52.016;4.356;2023-04-08T03:55:56;15.40;55.20
69492;DHT22;56692;52.016;4.356;2023-04-08T03:58:22;15.40;55.30
69492;DHT22;56692;52.016;4.356;2023-04-08T04:00:47;15.40;55.30
69492;DHT22;56692;52.016;4.356;2023-04-08T04:03:13;15.40;55.30
69492;DHT22;56692;52.016;4.356;2023-04-08T04:05:39;15.40;55.30
69492;DHT22;56692;52.016;4.356;2023-04-08T04:08:05;15.40;55.30
69492;DHT22;56692;52.016;4.356;2023-04-08T04:10:30;15.40;55.40
69492;DHT22;56692;52.016;4.356;2023-04-08T04:12:56;15.40;55.30
69492;DHT22;56692;52.016;4.356;2023-04-08T04:15:22;15.40;55.40
69492;DHT22;56692;52.016;4.356;2023-04-08T04:17:48;15.40;55.40
69492;DHT22;56692;52.016;4.356;2023-04-08T04:20:15;15.30;55.30
69492;DHT22;56692;52.016;4.356;2023-04-08T04:22:41;15.30;55.40
69492;DHT22;56692;52.016;4.356;2023-04-08T04:25:08;15.30;55.40
69492;DHT22;56692;52.016;4.356;2023-04-08T04:27:33;15.30;55.40
69492;DHT22;56692;52.016;4.356;2023-04-08T04:30:01;15.30;55.40
69492;DHT22;56692;52.016;4.356;2023-04-08T04:32:27;15.30;55.40
69492;DHT22;56692;52.016;4.356;2023-04-08T04:34:53;15.30;55.60
69492;DHT22;56692;52.016;4.356;2023-04-08T04:37:22;15.30;55.50
69492;DHT22;56692;52.016;4.356;2023-04-08T04:39:47;15.30;55.50
69492;DHT22;56692;52.016;4.356;2023-04-08T04:42:13;15.30;55.50
69492;DHT22;56692;52.016;4.356;2023-04-08T04:44:38;15.30;55.50
69492;DHT22;56692;52.016;4.356;2023-04-08T04:47:04;15.30;55.40
69492;DHT22;56692;52.016;4.356;2023-04-08T04:49:30;15.30;55.50
69492;DHT22;56692;52.016;4.356;2023-04-08T04:51:56;15.30;55.50
69492;DHT22;56692;52.016;4.356;2023-04-08T04:54:21;15.30;55.50
69492;DHT22;56692;52.016;4.356;2023-04-08T04:56:47;15.30;55.50
69492;DHT22;56692;52.016;4.356;2023-04-08T04:59:13;15.30;55.50
69492;DHT22;56692;52.016;4.356;2023-04-08T05:01:38;15.20;55.50
69492;DHT22;56692;52.016;4.356;2023-04-08T05:04:05;15.20;55.50
69492;DHT22;56692;52.016;4.356;2023-04-08T05:06:31;15.30;55.50
69492;DHT22;56692;52.016;4.356;2023-04-08T05:08:57;15.30;55.50
69492;DHT22;56692;52.016;4.356;2023-04-08T05:11:23;15.20;55.50
69492;DHT22;56692;52.016;4.356;2023-04-08T05:13:48;15.20;55.50
69492;DHT22;56692;52.016;4.356;2023-04-08T05:16:14;15.20;55.50
69492;DHT22;56692;52.016;4.356;2023-04-08T05:18:40;15.20;55.50
69492;DHT22;56692;52.016;4.356;2023-04-08T05:21:06;15.20;55.50
69492;DHT22;56692;52.016;4.356;2023-04-08T05:23:33;15.20;55.60
69492;DHT22;56692;52.016;4.356;2023-04-08T05:25:58;15.30;55.50
69492;DHT22;56692;52.016;4.356;2023-04-08T05:28:24;15.30;55.50
69492;DHT22;56692;52.016;4.356;2023-04-08T05:30:51;15.30;55.30
69492;DHT22;56692;52.016;4.356;2023-04-08T05:33:17;15.30;55.30
69492;DHT22;56692;52.016;4.356;2023-04-08T05:35:43;15.30;55.30
69492;DHT22;56692;52.016;4.356;2023-04-08T05:38:09;15.30;55.20
69492;DHT22;56692;52.016;4.356;2023-04-08T05:40:34;15.30;55.20
69492;DHT22;56692;52.016;4.356;2023-04-08T05:43:00;15.30;55.10
69492;DHT22;56692;52.016;4.356;2023-04-08T05:45:27;15.30;55.10
69492;DHT22;56692;52.016;4.356;2023-04-08T05:47:53;15.30;55.10
69492;DHT22;56692;52.016;4.356;2023-04-08T05:50:18;15.30;55.10
69492;DHT22;56692;52.016;4.356;2023-04-08T05:52:44;15.30;55.00
69492;DHT22;56692;52.016;4.356;2023-04-08T05:55:11;15.40;55.00
69492;DHT22;56692;52.016;4.356;2023-04-08T05:57:37;15.40;55.00
69492;DHT22;56692;52.016;4.356;2023-04-08T06:00:07;15.40;55.00
69492;DHT22;56692;52.016;4.356;2023-04-08T06:02:36;15.30;54.90
69492;DHT22;56692;52.016;4.356;2023-04-08T06:05:03;15.40;54.90
69492;DHT22;56692;52.016;4.356;2023-04-08T06:07:29;15.40;54.90
69492;DHT22;56692;52.016;4.356;2023-04-08T06:09:55;15.40;54.90
69492;DHT22;56692;52.016;4.356;2023-04-08T06:12:21;15.40;54.90
69492;DHT22;56692;52.016;4.356;2023-04-08T06:14:46;15.40;54.80
69492;DHT22;56692;52.016;4.356;2023-04-08T06:17:13;15.40;54.80
69492;DHT22;56692;52.016;4.356;2023-04-08T06:19:39;15.40;54.70
69492;DHT22;56692;52.016;4.356;2023-04-08T06:22:05;15.40;54.70
69492;DHT22;56692;52.016;4.356;2023-04-08T06:24:30;15.40;54.70
69492;DHT22;56692;52.016;4.356;2023-04-08T06:26:56;15.40;54.70
69492;DHT22;56692;52.016;4.356;2023-04-08T06:29:22;15.40;54.70
69492;DHT22;56692;52.016;4.356;2023-04-08T06:31:48;15.40;54.60
69492;DHT22;56692;52.016;4.356;2023-04-08T06:34:15;15.50;54.60
69492;DHT22;56692;52.016;4.356;2023-04-08T06:36:41;15.50;54.60
69492;DHT22;56692;52.016;4.356;2023-04-08T06:39:06;15.50;54.60
69492;DHT22;56692;52.016;4.356;2023-04-08T06:41:32;15.50;54.60
69492;DHT22;56692;52.016;4.356;2023-04-08T06:43:58;15.50;54.60
69492;DHT22;56692;52.016;4.356;2023-04-08T06:46:24;15.50;54.60
69492;DHT22;56692;52.016;4.356;2023-04-08T06:48:50;15.50;54.60
69492;DHT22;56692;52.016;4.356;2023-04-08T06:51:15;15.50;54.60
69492;DHT22;56692;52.016;4.356;2023-04-08T06:53:41;15.50;54.60
69492;DHT22;56692;52.016;4.356;2023-04-08T06:56:07;15.50;54.50
69492;DHT22;56692;52.016;4.356;2023-04-08T06:58:32;15.50;54.50
69492;DHT22;56692;52.016;4.356;2023-04-08T07:00:58;15.50;54.50
69492;DHT22;56692;52.016;4.356;2023-04-08T07:03:25;15.50;54.60
69492;DHT22;56692;52.016;4.356;2023-04-08T07:05:52;15.50;54.60
69492;DHT22;56692;52.016;4.356;2023-04-08T07:08:18;15.50;54.70
69492;DHT22;56692;52.016;4.356;2023-04-08T07:10:43;15.60;54.60
69492;DHT22;56692;52.016;4.356;2023-04-08T07:13:09;15.60;54.60
69492;DHT22;56692;52.016;4.356;2023-04-08T07:15:35;15.60;54.60
69492;DHT22;56692;52.016;4.356;2023-04-08T07:18:01;15.60;54.90
69492;DHT22;56692;52.016;4.356;2023-04-08T07:20:27;15.60;55.10
69492;DHT22;56692;52.016;4.356;2023-04-08T07:22:53;15.60;55.20
69492;DHT22;56692;52.016;4.356;2023-04-08T07:25:18;15.70;55.20
69492;DHT22;56692;52.016;4.356;2023-04-08T07:27:44;15.70;55.20
69492;DHT22;56692;52.016;4.356;2023-04-08T07:30:10;15.70;55.40
69492;DHT22;56692;52.016;4.356;2023-04-08T07:32:37;15.70;55.40
69492;DHT22;56692;52.016;4.356;2023-04-08T07:35:03;15.70;55.30
69492;DHT22;56692;52.016;4.356;2023-04-08T07:37:28;15.70;55.30
69492;DHT22;56692;52.016;4.356;2023-04-08T07:39:54;15.70;55.30
69492;DHT22;56692;52.016;4.356;2023-04-08T07:42:20;15.70;55.30
69492;DHT22;56692;52.016;4.356;2023-04-08T07:44:46;15.70;55.30
69492;DHT22;56692;52.016;4.356;2023-04-08T07:47:13;15.70;55.20
69492;DHT22;56692;52.016;4.356;2023-04-08T07:49:39;15.70;55.20
69492;DHT22;56692;52.016;4.356;2023-04-08T07:52:05;15.70;55.20
69492;DHT22;56692;52.016;4.356;2023-04-08T07:54:32;15.70;55.20
69492;DHT22;56692;52.016;4.356;2023-04-08T07:57:01;15.70;55.10
69492;DHT22;56692;52.016;4.356;2023-04-08T07:59:27;15.70;55.20
69492;DHT22;56692;52.016;4.356;2023-04-08T08:01:53;15.70;55.10
69492;DHT22;56692;52.016;4.356;2023-04-08T08:04:19;15.70;55.10
69492;DHT22;56692;52.016;4.356;2023-04-08T08:06:46;15.70;55.10
69492;DHT22;56692;52.016;4.356;2023-04-08T08:09:15;15.70;55.00
69492;DHT22;56692;52.016;4.356;2023-04-08T08:11:41;15.70;55.10
69492;DHT22;56692;52.016;4.356;2023-04-08T08:14:06;15.70;55.00
69492;DHT22;56692;52.016;4.356;2023-04-08T08:16:32;15.70;55.00
69492;DHT22;56692;52.016;4.356;2023-04-08T08:18:58;15.70;54.90
69492;DHT22;56692;52.016;4.356;2023-04-08T08:21:24;15.70;55.00
69492;DHT22;56692;52.016;4.356;2023-04-08T08:23:51;15.70;55.10
69492;DHT22;56692;52.016;4.356;2023-04-08T08:26:17;15.80;55.20
69492;DHT22;56692;52.016;4.356;2023-04-08T08:28:43;15.80;55.20
69492;DHT22;56692;52.016;4.356;2023-04-08T08:31:09;15.90;55.30
69492;DHT22;56692;52.016;4.356;2023-04-08T08:33:35;15.90;55.10
69492;DHT22;56692;52.016;4.356;2023-04-08T08:36:00;15.90;54.90
69492;DHT22;56692;52.016;4.356;2023-04-08T08:38:26;15.90;55.20
69492;DHT22;56692;52.016;4.356;2023-04-08T08:40:56;15.90;55.20
69492;DHT22;56692;52.016;4.356;2023-04-08T08:43:23;15.90;55.20
69492;DHT22;56692;52.016;4.356;2023-04-08T08:45:48;15.90;55.40
69492;DHT22;56692;52.016;4.356;2023-04-08T08:48:14;15.90;55.50
69492;DHT22;56692;52.016;4.356;2023-04-08T08:50:40;15.90;55.50
69492;DHT22;56692;52.016;4.356;2023-04-08T08:53:06;15.80;55.50
69492;DHT22;56692;52.016;4.356;2023-04-08T08:55:32;15.80;55.50
69492;DHT22;56692;52.016;4.356;2023-04-08T08:58:01;15.80;55.50
69492;DHT22;56692;52.016;4.356;2023-04-08T09:00:34;15.80;55.60
69492;DHT22;56692;52.016;4.356;2023-04-08T09:03:17;15.80;55.60
69492;DHT22;56692;52.016;4.356;2023-04-08T09:05:54;15.80;55.60
69492;DHT22;56692;52.016;4.356;2023-04-08T09:08:37;15.80;55.50
69492;DHT22;56692;52.016;4.356;2023-04-08T09:11:14;15.90;55.60
69492;DHT22;56692;52.016;4.356;2023-04-08T09:13:41;15.90;55.70
69492;DHT22;56692;52.016;4.356;2023-04-08T09:16:09;15.90;55.60
69492;DHT22;56692;52.016;4.356;2023-04-08T09:18:36;15.90;55.70
69492;DHT22;56692;52.016;4.356;2023-04-08T09:21:03;15.90;55.80
69492;DHT22;56692;52.016;4.356;2023-04-08T09:23:49;15.80;55.80
69492;DHT22;56692;52.016;4.356;2023-04-08T09:26:22;15.90;55.70
69492;DHT22;56692;52.016;4.356;2023-04-08T09:29:08;15.80;55.80
69492;DHT22;56692;52.016;4.356;2023-04-08T09:31:38;15.80;55.80
69492;DHT22;56692;52.016;4.356;2023-04-08T09:34:15;15.80;55.70
69492;DHT22;56692;52.016;4.356;2023-04-08T09:36:51;15.80;55.70
69492;DHT22;56692;52.016;4.356;2023-04-08T09:39:17;15.90;55.70
69492;DHT22;56692;52.016;4.356;2023-04-08T09:41:44;15.80;55.70
69492;DHT22;56692;52.016;4.356;2023-04-08T09:44:14;15.90;55.60
69492;DHT22;56692;52.016;4.356;2023-04-08T09:46:54;15.80;55.60
69492;DHT22;56692;52.016;4.356;2023-04-08T09:49:30;15.90;55.60
69492;DHT22;56692;52.016;4.356;2023-04-08T09:55:04;15.90;55.60
69492;DHT22;56692;52.016;4.356;2023-04-08T09:57:40;15.90;55.60
69492;DHT22;56692;52.016;4.356;2023-04-08T10:00:10;15.90;55.50
69492;DHT22;56692;52.016;4.356;2023-04-08T10:02:54;15.90;55.50
69492;DHT22;56692;52.016;4.356;2023-04-08T10:05:21;15.90;55.50
69492;DHT22;56692;52.016;4.356;2023-04-08T10:07:50;15.90;55.60
69492;DHT22;56692;52.016;4.356;2023-04-08T10:10:16;15.90;55.50
69492;DHT22;56692;52.016;4.356;2023-04-08T10:12:42;15.90;55.50
69492;DHT22;56692;52.016;4.356;2023-04-08T10:15:27;15.90;55.40
69492;DHT22;56692;52.016;4.356;2023-04-08T10:20:46;15.90;55.50
69492;DHT22;56692;52.016;4.356;2023-04-08T10:23:15;15.90;55.50
69492;DHT22;56692;52.016;4.356;2023-04-08T10:25:43;15.90;55.40
69492;DHT22;56692;52.016;4.356;2023-04-08T10:30:48;16.00;55.40
69492;DHT22;56692;52.016;4.356;2023-04-08T10:33:51;16.00;55.30
69492;DHT22;56692;52.016;4.356;2023-04-08T10:36:10;16.00;55.30
69492;DHT22;56692;52.016;4.356;2023-04-08T10:38:40;16.00;55.20
69492;DHT22;56692;52.016;4.356;2023-04-08T10:41:11;16.00;55.20
69492;DHT22;56692;52.016;4.356;2023-04-08T10:43:38;16.00;55.30
69492;DHT22;56692;52.016;4.356;2023-04-08T10:46:04;16.00;55.20
69492;DHT22;56692;52.016;4.356;2023-04-08T10:48:30;16.00;55.20
69492;DHT22;56692;52.016;4.356;2023-04-08T10:51:01;16.00;55.20
69492;DHT22;56692;52.016;4.356;2023-04-08T10:53:36;16.00;55.20
69492;DHT22;56692;52.016;4.356;2023-04-08T10:56:06;16.00;55.10
69492;DHT22;56692;52.016;4.356;2023-04-08T10:58:35;16.00;55.10
69492;DHT22;56692;52.016;4.356;2023-04-08T11:01:12;16.00;55.10
69492;DHT22;56692;52.016;4.356;2023-04-08T11:03:38;16.00;55.10
69492;DHT22;56692;52.016;4.356;2023-04-08T11:06:06;16.00;55.10
69492;DHT22;56692;52.016;4.356;2023-04-08T11:08:33;16.00;55.10
69492;DHT22;56692;52.016;4.356;2023-04-08T11:10:59;16.10;55.10
69492;DHT22;56692;52.016;4.356;2023-04-08T11:13:29;16.00;55.00
69492;DHT22;56692;52.016;4.356;2023-04-08T11:15:55;16.10;55.00
69492;DHT22;56692;52.016;4.356;2023-04-08T11:18:22;16.10;55.00
69492;DHT22;56692;52.016;4.356;2023-04-08T11:20:50;16.10;55.00
69492;DHT22;56692;52.016;4.356;2023-04-08T11:23:16;16.10;55.00
69492;DHT22;56692;52.016;4.356;2023-04-08T11:25:42;16.10;55.00
69492;DHT22;56692;52.016;4.356;2023-04-08T11:28:15;16.10;55.10
69492;DHT22;56692;52.016;4.356;2023-04-08T11:30:41;16.10;55.00
69492;DHT22;56692;52.016;4.356;2023-04-08T11:33:08;16.10;55.00
69492;DHT22;56692;52.016;4.356;2023-04-08T11:35:38;16.10;55.00
69492;DHT22;56692;52.016;4.356;2023-04-08T11:38:04;16.20;55.10
69492;DHT22;56692;52.016;4.356;2023-04-08T11:40:29;16.10;55.00
69492;DHT22;56692;52.016;4.356;2023-04-08T11:42:55;16.20;55.00
69492;DHT22;56692;52.016;4.356;2023-04-08T11:45:21;16.20;55.00
69492;DHT22;56692;52.016;4.356;2023-04-08T11:47:47;16.20;55.00
69492;DHT22;56692;52.016;4.356;2023-04-08T11:50:23;16.20;55.00
69492;DHT22;56692;52.016;4.356;2023-04-08T11:52:50;16.20;55.00
69492;DHT22;56692;52.016;4.356;2023-04-08T11:55:27;16.20;54.90
69492;DHT22;56692;52.016;4.356;2023-04-08T11:57:54;16.20;54.90
69492;DHT22;56692;52.016;4.356;2023-04-08T12:00:21;16.30;54.90
69492;DHT22;56692;52.016;4.356;2023-04-08T12:02:47;16.20;54.80
69492;DHT22;56692;52.016;4.356;2023-04-08T12:05:14;16.30;54.80
69492;DHT22;56692;52.016;4.356;2023-04-08T12:07:40;16.30;54.80
69492;DHT22;56692;52.016;4.356;2023-04-08T12:10:07;16.30;54.70
69492;DHT22;56692;52.016;4.356;2023-04-08T12:12:33;16.30;54.80
69492;DHT22;56692;52.016;4.356;2023-04-08T12:14:59;16.30;54.80
69492;DHT22;56692;52.016;4.356;2023-04-08T12:17:24;16.30;54.90
69492;DHT22;56692;52.016;4.356;2023-04-08T12:19:50;16.30;55.00
69492;DHT22;56692;52.016;4.356;2023-04-08T12:22:16;16.30;54.90
69492;DHT22;56692;52.016;4.356;2023-04-08T12:24:42;16.40;54.90
69492;DHT22;56692;52.016;4.356;2023-04-08T12:27:07;16.40;55.00
69492;DHT22;56692;52.016;4.356;2023-04-08T12:29:33;16.40;54.90
69492;DHT22;56692;52.016;4.356;2023-04-08T12:31:59;16.40;54.90
69492;DHT22;56692;52.016;4.356;2023-04-08T12:34:25;16.40;54.90
69492;DHT22;56692;52.016;4.356;2023-04-08T12:36:50;16.40;54.90
69492;DHT22;56692;52.016;4.356;2023-04-08T12:39:16;16.40;55.00
69492;DHT22;56692;52.016;4.356;2023-04-08T12:41:42;16.40;54.90
69492;DHT22;56692;52.016;4.356;2023-04-08T12:44:08;16.50;54.90
69492;DHT22;56692;52.016;4.356;2023-04-08T12:46:34;16.50;54.90
69492;DHT22;56692;52.016;4.356;2023-04-08T12:48:59;16.50;55.00
69492;DHT22;56692;52.016;4.356;2023-04-08T12:51:25;16.50;55.00
69492;DHT22;56692;52.016;4.356;2023-04-08T12:53:51;16.50;54.90
69492;DHT22;56692;52.016;4.356;2023-04-08T12:56:17;16.50;55.00
69492;DHT22;56692;52.016;4.356;2023-04-08T12:58:42;16.50;55.00
69492;DHT22;56692;52.016;4.356;2023-04-08T13:01:08;16.50;55.00
69492;DHT22;56692;52.016;4.356;2023-04-08T13:03:34;16.60;54.90
69492;DHT22;56692;52.016;4.356;2023-04-08T13:06:00;16.60;55.00
69492;DHT22;56692;52.016;4.356;2023-04-08T13:08:26;16.60;55.00
69492;DHT22;56692;52.016;4.356;2023-04-08T13:10:52;16.60;55.00
69492;DHT22;56692;52.016;4.356;2023-04-08T13:13:19;16.70;54.90
69492;DHT22;56692;52.016;4.356;2023-04-08T13:15:44;16.70;55.00
69492;DHT22;56692;52.016;4.356;2023-04-08T13:18:11;16.70;55.00
69492;DHT22;56692;52.016;4.356;2023-04-08T13:20:36;16.70;55.00
69492;DHT22;56692;52.016;4.356;2023-04-08T13:23:02;16.70;54.90
69492;DHT22;56692;52.016;4.356;2023-04-08T13:25:28;16.80;55.00
69492;DHT22;56692;52.016;4.356;2023-04-08T13:27:53;16.80;54.90
69492;DHT22;56692;52.016;4.356;2023-04-08T13:30:19;16.80;54.80
69492;DHT22;56692;52.016;4.356;2023-04-08T13:32:45;16.80;54.80
69492;DHT22;56692;52.016;4.356;2023-04-08T13:35:10;16.80;54.80
69492;DHT22;56692;52.016;4.356;2023-04-08T13:37:36;16.90;54.80
69492;DHT22;56692;52.016;4.356;2023-04-08T13:40:03;16.90;54.80
69492;DHT22;56692;52.016;4.356;2023-04-08T13:42:28;16.90;54.80
69492;DHT22;56692;52.016;4.356;2023-04-08T13:44:57;16.90;54.80
69492;DHT22;56692;52.016;4.356;2023-04-08T13:47:23;16.90;54.80
69492;DHT22;56692;52.016;4.356;2023-04-08T13:49:49;17.00;54.70
69492;DHT22;56692;52.016;4.356;2023-04-08T13:52:15;17.00;54.70
69492;DHT22;56692;52.016;4.356;2023-04-08T13:54:40;17.00;54.80
69492;DHT22;56692;52.016;4.356;2023-04-08T13:57:06;17.00;54.70
69492;DHT22;56692;52.016;4.356;2023-04-08T13:59:32;17.00;54.70
69492;DHT22;56692;52.016;4.356;2023-04-08T14:01:58;17.00;54.70
69492;DHT22;56692;52.016;4.356;2023-04-08T14:04:24;17.10;54.70
69492;DHT22;56692;52.016;4.356;2023-04-08T14:06:50;17.10;54.70
69492;DHT22;56692;52.016;4.356;2023-04-08T14:09:20;17.10;54.70
69492;DHT22;56692;52.016;4.356;2023-04-08T14:11:46;17.10;54.70
69492;DHT22;56692;52.016;4.356;2023-04-08T14:14:12;17.20;54.70
69492;DHT22;56692;52.016;4.356;2023-04-08T14:16:37;17.20;54.70
69492;DHT22;56692;52.016;4.356;2023-04-08T14:19:03;17.20;54.70
69492;DHT22;56692;52.016;4.356;2023-04-08T14:21:30;17.20;54.70
69492;DHT22;56692;52.016;4.356;2023-04-08T14:23:56;17.20;54.70
69492;DHT22;56692;52.016;4.356;2023-04-08T14:26:22;17.20;54.60
69492;DHT22;56692;52.016;4.356;2023-04-08T14:28:48;17.30;54.60
69492;DHT22;56692;52.016;4.356;2023-04-08T14:31:14;17.30;54.60
69492;DHT22;56692;52.016;4.356;2023-04-08T14:33:40;17.30;54.60
69492;DHT22;56692;52.016;4.356;2023-04-08T14:36:07;17.30;54.60
69492;DHT22;56692;52.016;4.356;2023-04-08T14:38:33;17.30;54.60
69492;DHT22;56692;52.016;4.356;2023-04-08T14:40:59;17.30;54.60
69492;DHT22;56692;52.016;4.356;2023-04-08T14:43:24;17.40;54.60
69492;DHT22;56692;52.016;4.356;2023-04-08T14:45:50;17.40;54.60
69492;DHT22;56692;52.016;4.356;2023-04-08T14:48:17;17.40;54.60
69492;DHT22;56692;52.016;4.356;2023-04-08T14:50:43;17.40;54.60
69492;DHT22;56692;52.016;4.356;2023-04-08T14:53:09;17.40;54.60
69492;DHT22;56692;52.016;4.356;2023-04-08T14:55:35;17.40;54.50
69492;DHT22;56692;52.016;4.356;2023-04-08T14:58:01;17.50;54.60
69492;DHT22;56692;52.016;4.356;2023-04-08T15:00:27;17.50;54.50
69492;DHT22;56692;52.016;4.356;2023-04-08T15:02:53;17.50;54.60
69492;DHT22;56692;52.016;4.356;2023-04-08T15:05:18;17.50;54.60
69492;DHT22;56692;52.016;4.356;2023-04-08T15:07:45;17.50;54.60
69492;DHT22;56692;52.016;4.356;2023-04-08T15:10:11;17.50;54.60
69492;DHT22;56692;52.016;4.356;2023-04-08T15:12:37;17.50;54.60
69492;DHT22;56692;52.016;4.356;2023-04-08T15:15:03;17.50;54.60
69492;DHT22;56692;52.016;4.356;2023-04-08T15:17:29;17.50;54.60
69492;DHT22;56692;52.016;4.356;2023-04-08T15:19:55;17.50;54.60
69492;DHT22;56692;52.016;4.356;2023-04-08T15:22:21;17.40;54.70
69492;DHT22;56692;52.016;4.356;2023-04-08T15:24:47;17.40;54.60
69492;DHT22;56692;52.016;4.356;2023-04-08T15:27:12;17.40;54.60
69492;DHT22;56692;52.016;4.356;2023-04-08T15:29:39;17.40;54.60
69492;DHT22;56692;52.016;4.356;2023-04-08T15:32:04;17.40;54.60
69492;DHT22;56692;52.016;4.356;2023-04-08T15:34:30;17.50;54.60
69492;DHT22;56692;52.016;4.356;2023-04-08T15:36:56;17.40;54.60
69492;DHT22;56692;52.016;4.356;2023-04-08T15:39:22;17.50;54.60
69492;DHT22;56692;52.016;4.356;2023-04-08T15:41:48;17.50;54.60